Time;durP1;ratioP1;P1;durP2;ratioP2;P2;SDS_P1;SDS_P2;PMS_P1;PMS_P2;Temp;Humidity;BMP_temperature;BMP_pressure;BME280_temperature;BME280_humidity;BME280_pressure;Samples;Min_cycle;Max_cycle;Signal;HPM_P1;HPM_P2
2023/02/26 00:01:03;;;;;;;2.75;1.63;;;;;;;7.02;100.00;95485.63;5101833;27;20086;-55
2023/02/26 00:03:31;;;;;;;2.38;1.80;;;;;;;7.06;100.00;95484.38;5115507;27;20090;-57
2023/02/26 00:06:01;;;;;;;3.58;1.83;;;;;;;6.82;100.00;95501.47;5103479;27;20076;-53
2023/02/26 00:08:30;;;;;;;3.10;2.90;;;;;;;6.74;100.00;95501.34;5102090;27;20051;-49
2023/02/26 00:11:00;;;;;;;3.10;2.90;;;;;;;6.89;100.00;95502.53;5099826;27;20086;-51
2023/02/26 00:13:29;;;;;;;;;;;;;;;6.73;100.00;95512.78;5107848;27;20067;-50
2023/02/26 00:16:00;;;;;;;1.58;1.35;;;;;;;6.50;100.00;95506.25;5093003;27;20415;-50
2023/02/26 00:18:29;;;;;;;2.42;1.40;;;;;;;6.53;100.00;95508.59;5101795;27;20090;-47
2023/02/26 00:20:58;;;;;;;2.10;1.48;;;;;;;6.46;100.00;95507.53;5092487;27;20087;-51
2023/02/26 00:23:28;;;;;;;1.83;1.45;;;;;;;6.41;100.00;95514.00;5100846;27;20083;-50
2023/02/26 00:25:57;;;;;;;1.75;1.35;;;;;;;6.29;100.00;95511.69;5102333;27;20072;-52
2023/02/26 00:28:26;;;;;;;3.25;1.52;;;;;;;6.51;100.00;95518.41;5107379;27;20632;-51
2023/02/26 00:30:55;;;;;;;2.88;1.80;;;;;;;6.61;100.00;95519.19;5101233;27;20079;-50
2023/02/26 00:33:24;;;;;;;1.10;1.00;;;;;;;6.52;100.00;95515.63;5094655;27;20086;-53
2023/02/26 00:35:56;;;;;;;1.60;1.17;;;;;;;6.65;100.00;95517.94;5102108;27;20172;-51
2023/02/26 00:38:24;;;;;;;1.58;1.48;;;;;;;6.14;100.00;95516.56;5091975;27;20461;-58
2023/02/26 00:40:55;;;;;;;1.42;1.20;;;;;;;6.69;100.00;95529.78;5100776;27;20086;-51
2023/02/26 00:43:26;;;;;;;2.10;1.60;;;;;;;6.66;100.00;95524.81;5107806;27;20094;-53
2023/02/26 00:45:59;;;;;;;2.70;1.58;;;;;;;6.39;100.00;95522.97;5094150;27;20086;-50
2023/02/26 00:48:40;;;;;;;1.98;1.58;;;;;;;6.18;100.00;95531.84;5101814;27;20079;-54
2023/02/26 00:51:15;;;;;;;2.28;1.80;;;;;;;6.51;100.00;95527.09;5103251;27;20079;-52
2023/02/26 00:53:48;;;;;;;2.08;1.35;;;;;;;6.12;100.00;95534.19;5097700;28;20075;-50
2023/02/26 00:56:17;;;;;;;1.63;1.50;;;;;;;6.44;100.00;95531.25;5099067;27;20091;-55
2023/02/26 00:58:46;;;;;;;2.25;1.88;;;;;;;6.23;100.00;95533.19;5099807;28;20087;-49
2023/02/26 01:01:14;;;;;;;2.90;1.92;;;;;;;6.21;100.00;95525.50;5104737;27;20072;-51
2023/02/26 01:03:43;;;;;;;1.88;1.70;;;;;;;5.91;100.00;95536.94;5096790;28;20362;-54
2023/02/26 01:06:13;;;;;;;1.67;1.42;;;;;;;5.85;100.00;95533.09;5098706;28;20071;-55
2023/02/26 01:08:45;;;;;;;1.55;1.15;;;;;;;6.31;100.00;95531.53;5099723;28;20090;-55
2023/02/26 01:11:14;;;;;;;1.75;1.50;;;;;;;6.14;100.00;95529.66;5105197;28;20090;-53
2023/02/26 01:13:44;;;;;;;2.10;1.30;;;;;;;5.93;100.00;95532.44;5098017;28;20103;-53
2023/02/26 01:16:20;;;;;;;2.42;1.50;;;;;;;5.70;100.00;95526.59;5102813;28;20086;-54
2023/02/26 01:18:50;;;;;;;3.03;1.42;;;;;;;5.91;100.00;95531.69;5107362;28;20071;-47
2023/02/26 01:21:23;;;;;;;3.65;1.58;;;;;;;5.67;100.00;95529.50;5104272;28;20071;-46
2023/02/26 01:23:52;;;;;;;2.15;1.60;;;;;;;5.63;100.00;95530.75;5108797;27;20094;-50
2023/02/26 01:26:23;;;;;;;1.33;1.17;;;;;;;5.77;100.00;95521.66;5094933;27;20087;-47
2023/02/26 01:28:54;;;;;;;2.22;1.33;;;;;;;5.97;100.00;95532.97;5096496;27;20083;-49
2023/02/26 01:31:30;;;;;;;;;;;;;;;5.71;100.00;95536.09;5102963;27;20083;-50
2023/02/26 01:34:02;;;;;;;2.78;1.70;;;;;;;5.43;100.00;95535.94;5111602;27;19971;-49
2023/02/26 01:36:33;;;;;;;2.50;1.80;;;;;;;6.15;100.00;95532.09;5103463;27;20075;-55
2023/02/26 01:39:05;;;;;;;2.13;1.80;;;;;;;5.71;100.00;95541.31;5104178;27;20087;-53
2023/02/26 01:41:36;;;;;;;1.27;1.17;;;;;;;5.47;100.00;95531.25;5100305;27;20084;-51
2023/02/26 01:44:14;;;;;;;1.95;1.42;;;;;;;5.96;100.00;95539.19;5100171;27;20079;-51
2023/02/26 01:46:57;;;;;;;2.22;1.33;;;;;;;5.93;100.00;95537.66;5095942;28;20091;-54
2023/02/26 01:49:26;;;;;;;1.63;1.20;;;;;;;5.62;100.00;95545.59;5098833;27;20090;-50
2023/02/26 01:51:56;;;;;;;2.65;1.10;;;;;;;5.41;100.00;95547.53;5106137;27;20082;-47
2023/02/26 01:54:26;;;;;;;1.52;1.38;;;;;;;5.46;100.00;95550.53;5115244;27;20091;-53
2023/02/26 01:56:57;;;;;;;2.35;1.10;;;;;;;5.94;100.00;95539.31;5106641;27;20086;-50
2023/02/26 01:59:26;;;;;;;1.15;1.05;;;;;;;5.25;100.00;95550.63;5108813;27;20579;-54
2023/02/26 02:01:57;;;;;;;7.13;1.37;;;;;;;5.47;100.00;95553.03;5106782;27;21943;-50
2023/02/26 02:04:26;;;;;;;1.38;1.27;;;;;;;5.45;100.00;95554.13;5098989;27;20096;-55
2023/02/26 02:06:55;;;;;;;1.92;0.77;;;;;;;5.56;100.00;95554.00;5110050;27;20079;-52
2023/02/26 02:09:23;;;;;;;3.47;1.40;;;;;;;5.84;100.00;95556.75;5104912;27;20087;-52
2023/02/26 02:12:08;;;;;;;1.70;1.25;;;;;;;5.76;97.01;95559.25;5101258;27;20118;-51
2023/02/26 02:14:45;;;;;;;1.75;0.98;;;;;;;5.30;99.43;95560.69;5103938;27;20086;-49
2023/02/26 02:17:19;;;;;;;0.88;0.82;;;;;;;5.90;94.37;95561.44;5099875;27;20075;-50
2023/02/26 02:19:59;;;;;;;2.58;1.17;;;;;;;5.52;98.91;95564.88;5105515;27;20457;-49
2023/02/26 02:22:40;;;;;;;2.50;1.45;;;;;;;5.77;93.50;95559.09;5101130;27;20083;-50
2023/02/26 02:25:20;;;;;;;1.17;1.00;;;;;;;5.71;95.95;95565.72;5102082;27;20090;-55
2023/02/26 02:27:54;;;;;;;3.75;1.27;;;;;;;5.24;99.66;95572.53;5112526;27;20523;-56
2023/02/26 02:30:31;;;;;;;1.90;1.00;;;;;;;5.68;96.63;95573.03;5097913;27;20080;-51
2023/02/26 02:33:02;;;;;;;1.17;1.08;;;;;;;5.62;96.85;95574.38;5100996;27;20083;-52
2023/02/26 02:35:32;;;;;;;1.27;1.05;;;;;;;5.71;93.21;95581.41;5103666;27;20461;-56
2023/02/26 02:38:14;;;;;;;2.55;1.30;;;;;;;5.23;100.00;95576.94;5098116;27;20163;-55
2023/02/26 02:40:47;;;;;;;4.03;1.23;;;;;;;5.57;95.70;95578.34;5097029;27;20079;-54
2023/02/26 02:43:17;;;;;;;1.80;1.20;;;;;;;5.47;93.29;95584.41;5103570;27;20114;-53
2023/02/26 02:45:49;;;;;;;3.17;1.10;;;;;;;5.51;92.89;95581.53;5096635;27;20091;-57
2023/02/26 02:48:24;;;;;;;2.35;1.17;;;;;;;5.27;95.12;95587.94;5099618;27;20076;-55
2023/02/26 02:50:55;;;;;;;2.55;0.90;;;;;;;5.67;89.83;95585.25;5096756;27;20076;-53
2023/02/26 02:53:26;;;;;;;4.43;1.25;;;;;;;5.69;90.65;95585.13;5105745;27;20090;-58
2023/02/26 02:55:57;;;;;;;2.58;0.95;;;;;;;5.46;89.48;95587.97;5100467;27;20075;-56
2023/02/26 02:58:29;;;;;;;4.25;1.20;;;;;;;5.73;88.81;95591.72;5099305;27;20091;-55
2023/02/26 03:01:01;;;;;;;0.98;0.90;;;;;;;5.51;94.82;95590.19;5101860;27;20079;-53
2023/02/26 03:03:34;;;;;;;1.15;1.00;;;;;;;5.63;92.41;95593.50;5100976;27;20079;-50
2023/02/26 03:06:03;;;;;;;0.70;0.70;;;;;;;5.56;92.00;95603.69;5099352;27;20086;-51
2023/02/26 03:08:36;;;;;;;1.38;1.20;;;;;;;5.55;91.80;95598.59;5103807;27;20078;-49
2023/02/26 03:11:05;;;;;;;0.95;0.95;;;;;;;5.55;91.03;95599.41;5099134;27;20516;-51
2023/02/26 03:13:33;;;;;;;2.05;1.52;;;;;;;5.18;93.30;95607.84;5096127;28;20079;-51
2023/02/26 03:16:16;;;;;;;1.73;1.58;;;;;;;5.12;94.73;95608.38;5101582;27;20079;-50
2023/02/26 03:18:52;;;;;;;2.67;1.20;;;;;;;5.08;94.14;95609.59;5100652;27;20472;-54
2023/02/26 03:21:28;;;;;;;1.55;1.15;;;;;;;5.20;96.85;95613.78;5100022;27;20079;-54
2023/02/26 03:24:01;;;;;;;2.92;1.17;;;;;;;4.88;97.65;95619.13;5098162;27;20083;-52
2023/02/26 03:26:33;;;;;;;1.08;0.98;;;;;;;5.19;95.83;95614.72;5104354;27;20079;-50
2023/02/26 03:29:05;;;;;;;2.75;1.10;;;;;;;4.97;92.44;95615.75;5098549;27;20078;-56
2023/02/26 03:31:36;;;;;;;0.90;0.90;;;;;;;4.84;94.67;95625.56;5110340;27;20502;-55
2023/02/26 03:34:08;;;;;;;2.22;2.03;;;;;;;4.70;95.02;95625.91;5104368;27;20078;-51
2023/02/26 03:36:40;;;;;;;3.30;2.22;;;;;;;4.44;98.83;95634.16;5106919;27;20686;-53
2023/02/26 03:39:12;;;;;;;6.22;2.45;;;;;;;4.68;97.11;95631.28;5094294;28;20549;-50
2023/02/26 03:41:44;;;;;;;1.35;1.25;;;;;;;4.83;98.27;95637.00;5104868;27;20078;-52
2023/02/26 03:44:18;;;;;;;2.53;1.45;;;;;;;5.07;90.84;95638.47;5100107;27;20079;-52
2023/02/26 03:46:51;;;;;;;1.42;1.20;;;;;;;4.47;94.35;95646.97;5100609;27;20101;-49
2023/02/26 03:49:26;;;;;;;1.90;1.50;;;;;;;4.59;94.99;95639.88;5107356;27;20528;-49
2023/02/26 03:51:54;;;;;;;1.30;1.20;;;;;;;4.84;97.15;95643.03;5097874;27;20075;-55
2023/02/26 03:54:26;;;;;;;4.35;1.58;;;;;;;4.45;94.69;95655.88;5098457;27;20083;-53
2023/02/26 03:56:54;;;;;;;2.33;1.23;;;;;;;4.98;93.38;95650.53;5104693;27;20572;-51
2023/02/26 03:59:23;;;;;;;1.08;0.90;;;;;;;4.72;94.36;95650.13;5102045;27;20080;-50
2023/02/26 04:01:54;;;;;;;3.67;1.67;;;;;;;4.21;97.28;95656.91;5102711;27;20678;-51
2023/02/26 04:04:27;;;;;;;2.30;1.52;;;;;;;4.62;93.64;95654.47;5103424;27;20082;-49
2023/02/26 04:06:56;;;;;;;5.05;1.70;;;;;;;4.59;94.97;95662.56;5104941;27;20553;-53
2023/02/26 04:09:25;;;;;;;2.80;1.65;;;;;;;4.57;94.08;95660.06;5106311;27;20082;-55
2023/02/26 04:11:54;;;;;;;2.20;1.38;;;;;;;4.49;94.49;95665.91;5100856;27;20511;-49
2023/02/26 04:14:22;;;;;;;1.20;1.10;;;;;;;4.34;96.00;95667.19;5101956;27;20078;-50
2023/02/26 04:16:50;;;;;;;0.90;0.90;;;;;;;4.55;95.42;95663.78;5098701;27;20165;-48
2023/02/26 04:19:19;;;;;;;2.88;1.27;;;;;;;4.46;96.36;95670.56;5099359;28;20090;-50
2023/02/26 04:21:48;;;;;;;1.13;1.00;;;;;;;4.57;97.24;95673.09;5100313;28;20094;-55
2023/02/26 04:24:17;;;;;;;2.80;1.33;;;;;;;4.36;98.65;95670.47;5101374;28;20072;-56
2023/02/26 04:26:45;;;;;;;1.23;0.90;;;;;;;4.61;100.00;95674.53;5097371;27;20078;-50
2023/02/26 04:29:13;;;;;;;4.38;1.10;;;;;;;4.42;100.00;95677.81;5103976;27;20630;-54
2023/02/26 04:31:42;;;;;;;1.40;1.13;;;;;;;4.33;100.00;95682.97;5095701;27;20508;-53
2023/02/26 04:34:10;;;;;;;2.63;0.90;;;;;;;4.42;98.54;95684.81;5102413;27;20080;-53
2023/02/26 04:36:38;;;;;;;2.40;1.13;;;;;;;4.33;97.20;95688.19;5097700;27;20102;-53
2023/02/26 04:39:09;;;;;;;4.60;1.63;;;;;;;4.18;99.00;95680.66;5103375;27;20553;-57
2023/02/26 04:41:37;;;;;;;1.65;1.40;;;;;;;3.97;96.60;95685.00;5105791;27;20539;-53
2023/02/26 04:44:06;;;;;;;1.17;1.08;;;;;;;3.74;100.00;95690.25;5096286;28;20083;-50
2023/02/26 04:46:34;;;;;;;1.35;1.00;;;;;;;3.79;100.00;95688.13;5108873;27;20097;-54
2023/02/26 04:49:03;;;;;;;1.10;1.00;;;;;;;3.74;100.00;95687.66;5103861;27;20471;-55
2023/02/26 04:51:32;;;;;;;2.08;0.95;;;;;;;3.79;100.00;95687.31;5106806;27;20082;-52
2023/02/26 04:54:00;;;;;;;1.35;1.23;;;;;;;3.51;100.00;95699.06;5097336;27;20080;-56
2023/02/26 04:56:31;;;;;;;2.25;1.60;;;;;;;3.52;100.00;95696.34;5097042;28;20531;-52
2023/02/26 04:58:59;;;;;;;4.82;1.38;;;;;;;3.55;99.62;95703.94;5095110;27;20067;-52
2023/02/26 05:01:27;;;;;;;0.90;0.90;;;;;;;3.53;100.00;95705.81;5091925;28;20083;-55
2023/02/26 05:03:56;;;;;;;0.98;0.90;;;;;;;3.67;100.00;95714.34;5103911;27;20101;-53
2023/02/26 05:06:24;;;;;;;1.17;1.02;;;;;;;3.60;100.00;95711.38;5101823;27;20799;-57
2023/02/26 05:08:53;;;;;;;0.60;0.60;;;;;;;3.76;96.82;95718.84;5100938;27;20103;-57
2023/02/26 05:11:21;;;;;;;2.90;1.58;;;;;;;3.73;93.84;95725.13;5095706;28;20067;-54
2023/02/26 05:13:50;;;;;;;7.63;1.15;;;;;;;3.88;92.99;95717.84;5101321;28;20181;-49
2023/02/26 05:16:19;;;;;;;1.13;0.90;;;;;;;3.82;88.24;95718.34;5105388;28;20467;-53
2023/02/26 05:18:47;;;;;;;1.35;1.05;;;;;;;3.65;91.65;95714.47;5096123;27;20523;-52
2023/02/26 05:21:15;;;;;;;8.55;1.73;;;;;;;3.56;92.43;95718.63;5105677;28;20094;-54
2023/02/26 05:23:43;;;;;;;1.65;1.20;;;;;;;3.21;95.43;95731.78;5105393;27;20076;-50
2023/02/26 05:26:12;;;;;;;3.33;0.95;;;;;;;3.49;96.91;95724.44;5097802;28;20099;-51
2023/02/26 05:28:40;;;;;;;2.75;1.10;;;;;;;3.52;92.21;95730.22;5098171;28;20083;-55
2023/02/26 05:31:10;;;;;;;1.88;1.35;;;;;;;3.56;92.41;95731.66;5101835;28;20071;-50
2023/02/26 05:33:38;;;;;;;1.98;1.83;;;;;;;3.31;94.09;95737.94;5098523;28;20456;-53
2023/02/26 05:36:07;;;;;;;1.90;1.30;;;;;;;3.18;94.37;95739.00;5098318;28;20086;-53
2023/02/26 05:38:35;;;;;;;1.75;1.40;;;;;;;3.39;94.48;95744.34;5100158;28;20091;-54
2023/02/26 05:41:04;;;;;;;1.85;1.45;;;;;;;3.19;94.35;95736.25;5108991;28;20087;-51
2023/02/26 05:43:32;;;;;;;3.83;2.10;;;;;;;3.54;93.57;95741.38;5107391;27;20083;-52
2023/02/26 05:46:01;;;;;;;1.65;1.55;;;;;;;3.73;89.97;95740.75;5108696;28;20506;-53
2023/02/26 05:48:30;;;;;;;3.40;2.30;;;;;;;3.85;89.38;95743.34;5098513;28;20079;-53
2023/02/26 05:50:59;;;;;;;3.00;2.58;;;;;;;3.65;89.05;95750.97;5098987;28;20076;-55
2023/02/26 05:53:27;;;;;;;4.05;2.35;;;;;;;3.35;91.45;95750.72;5097771;28;20094;-53
2023/02/26 05:55:55;;;;;;;2.92;2.17;;;;;;;2.97;92.88;95747.47;5116153;28;20083;-53
2023/02/26 05:58:24;;;;;;;3.97;1.60;;;;;;;2.79;93.11;95752.31;5099075;28;20487;-53
2023/02/26 06:00:52;;;;;;;1.35;1.27;;;;;;;2.79;90.13;95751.47;5104943;28;20573;-49
2023/02/26 06:03:20;;;;;;;2.15;1.58;;;;;;;2.72;93.65;95758.91;5107804;28;20079;-52
2023/02/26 06:05:50;;;;;;;2.35;1.92;;;;;;;2.53;96.27;95758.59;5098531;28;20075;-53
2023/02/26 06:08:18;;;;;;;3.17;2.20;;;;;;;2.57;98.59;95760.84;5110055;28;20090;-51
2023/02/26 06:10:47;;;;;;;3.13;2.00;;;;;;;2.60;95.27;95755.44;5104269;28;20469;-49
2023/02/26 06:13:15;;;;;;;1.90;1.73;;;;;;;2.79;95.59;95767.09;5109106;28;20098;-54
2023/02/26 06:15:43;;;;;;;5.15;2.28;;;;;;;2.99;97.12;95768.19;5107973;27;20081;-51
2023/02/26 06:18:11;;;;;;;6.07;2.63;;;;;;;3.10;94.36;95763.03;5106435;27;20086;-54
2023/02/26 06:20:40;;;;;;;2.03;1.58;;;;;;;2.91;94.93;95773.16;5102263;27;20711;-51
2023/02/26 06:23:09;;;;;;;5.82;2.63;;;;;;;3.31;92.67;95776.19;5112422;27;20087;-53
2023/02/26 06:25:37;;;;;;;5.28;2.38;;;;;;;3.47;87.99;95784.47;5106898;27;20048;-52
2023/02/26 06:28:06;;;;;;;4.32;2.55;;;;;;;3.53;87.41;95784.00;5113693;27;20082;-55
2023/02/26 06:30:34;;;;;;;3.90;2.10;;;;;;;3.65;88.00;95791.81;5102330;27;20063;-52
2023/02/26 06:33:03;;;;;;;5.30;2.35;;;;;;;3.74;82.87;95791.94;5103519;27;20094;-51
2023/02/26 06:35:31;;;;;;;3.38;2.30;;;;;;;3.91;81.80;95789.81;5116193;27;20066;-53
2023/02/26 06:37:59;;;;;;;2.50;1.55;;;;;;;3.69;80.07;95801.91;5100067;27;20087;-52
2023/02/26 06:40:30;;;;;;;4.30;2.65;;;;;;;4.03;75.57;95805.34;5103064;27;20535;-53
2023/02/26 06:42:58;;;;;;;7.40;2.95;;;;;;;3.71;74.86;95814.81;5102619;27;20491;-50
2023/02/26 06:45:26;;;;;;;7.63;2.78;;;;;;;3.74;74.63;95822.41;5101550;27;20449;-51
2023/02/26 06:47:54;;;;;;;5.47;3.08;;;;;;;4.18;72.57;95820.72;5111164;27;20090;-49
2023/02/26 06:50:23;;;;;;;5.22;2.65;;;;;;;4.29;71.17;95818.91;5104107;27;20524;-50
2023/02/26 06:52:51;;;;;;;4.13;2.00;;;;;;;4.54;68.30;95816.94;5108889;27;20670;-54
2023/02/26 06:55:20;;;;;;;3.28;1.92;;;;;;;4.33;64.70;95829.94;5110748;27;20420;-51
2023/02/26 06:57:50;;;;;;;2.63;1.85;;;;;;;4.39;62.88;95837.28;5096553;27;20083;-56
2023/02/26 07:00:18;;;;;;;3.13;2.17;;;;;;;4.27;62.08;95833.06;5103084;27;20084;-55
2023/02/26 07:02:47;;;;;;;5.38;2.00;;;;;;;3.79;65.32;95841.16;5105718;27;20083;-55
2023/02/26 07:05:15;;;;;;;6.07;1.98;;;;;;;4.33;65.01;95837.78;5108687;27;20086;-53
2023/02/26 07:07:44;;;;;;;5.75;2.28;;;;;;;4.70;66.04;95840.06;5121006;27;20530;-49
2023/02/26 07:10:12;;;;;;;4.80;2.00;;;;;;;5.14;65.26;95843.44;5104475;27;20616;-51
2023/02/26 07:12:41;;;;;;;2.85;2.08;;;;;;;5.30;62.46;95838.63;5115937;27;20082;-57
2023/02/26 07:15:10;;;;;;;4.57;2.00;;;;;;;5.19;60.26;95838.66;5105674;27;20106;-54
2023/02/26 07:17:39;;;;;;;4.43;2.28;;;;;;;5.41;58.96;95840.34;5112966;27;20084;-57
2023/02/26 07:20:09;;;;;;;3.08;1.67;;;;;;;5.51;57.76;95850.84;5102208;27;20452;-50
2023/02/26 07:22:37;;;;;;;2.22;1.60;;;;;;;4.98;59.56;95859.53;5105955;27;20093;-53
2023/02/26 07:25:06;;;;;;;2.03;1.65;;;;;;;5.27;61.27;95862.41;5106064;27;20078;-55
2023/02/26 07:27:35;;;;;;;3.20;1.75;;;;;;;5.41;62.75;95863.88;5099471;27;20087;-51
2023/02/26 07:30:05;;;;;;;3.25;1.67;;;;;;;5.75;60.71;95861.88;5105143;27;20082;-54
2023/02/26 07:32:35;;;;;;;4.22;1.50;;;;;;;5.91;60.19;95870.06;5098571;27;20527;-52
2023/02/26 07:35:04;;;;;;;5.78;2.08;;;;;;;5.89;60.58;95869.38;5103617;27;20635;-52
2023/02/26 07:37:32;;;;;;;1.05;0.95;;;;;;;5.78;62.99;95873.84;5099728;27;20086;-48
2023/02/26 07:40:00;;;;;;;5.60;2.15;;;;;;;6.16;62.00;95871.47;5104949;27;20555;-54
2023/02/26 07:42:29;;;;;;;4.25;1.90;;;;;;;6.82;59.48;95883.22;5108685;27;20083;-54
2023/02/26 07:44:58;;;;;;;3.38;1.80;;;;;;;6.72;58.19;95885.00;5113750;27;20087;-50
2023/02/26 07:47:26;;;;;;;1.70;1.20;;;;;;;6.31;60.07;95885.00;5108976;27;20098;-57
2023/02/26 07:49:56;;;;;;;2.50;1.80;;;;;;;7.03;58.81;95883.09;5110848;27;20079;-50
2023/02/26 07:52:24;;;;;;;3.97;2.10;;;;;;;7.44;58.50;95879.38;5107325;27;20543;-53
2023/02/26 07:54:52;;;;;;;1.52;1.05;;;;;;;6.81;57.29;95885.00;5101144;27;20085;-52
2023/02/26 07:57:21;;;;;;;4.25;1.48;;;;;;;6.61;60.72;95880.69;5100696;27;20082;-51
2023/02/26 07:59:49;;;;;;;1.95;1.10;;;;;;;6.85;60.08;95880.31;5096783;27;20118;-49
2023/02/26 08:02:17;;;;;;;3.38;1.60;;;;;;;6.20;65.07;95885.09;5094282;28;20086;-51
2023/02/26 08:04:45;;;;;;;12.70;5.07;;;;;;;6.92;62.41;95878.81;5100965;27;20087;-51
2023/02/26 08:07:15;;;;;;;12.57;7.32;;;;;;;8.14;58.68;95885.16;5095344;27;20067;-50
2023/02/26 08:09:43;;;;;;;8.87;5.60;;;;;;;7.77;58.71;95883.31;5099385;27;20564;-50
2023/02/26 08:12:11;;;;;;;3.67;2.17;;;;;;;6.23;61.78;95894.47;5105297;27;20078;-53
2023/02/26 08:14:40;;;;;;;7.43;4.88;;;;;;;7.10;61.88;95892.06;5104113;27;20095;-55
2023/02/26 08:17:10;;;;;;;3.22;2.30;;;;;;;7.16;60.94;95891.53;5101242;28;20083;-47
2023/02/26 08:19:38;;;;;;;3.87;1.77;;;;;;;7.07;62.79;95905.44;5096765;27;20082;-49
2023/02/26 08:22:07;;;;;;;9.23;6.30;;;;;;;7.30;62.28;95912.09;5094625;27;20496;-52
2023/02/26 08:24:36;;;;;;;4.03;2.53;;;;;;;7.96;60.36;95915.75;5096009;27;20439;-51
2023/02/26 08:27:05;;;;;;;6.30;1.80;;;;;;;7.95;59.39;95914.94;5098964;27;20079;-54
2023/02/26 08:29:33;;;;;;;3.80;2.88;;;;;;;7.09;60.89;95924.50;5099385;28;20079;-52
2023/02/26 08:32:01;;;;;;;5.32;3.60;;;;;;;8.78;59.65;95915.88;5100560;27;20475;-54
2023/02/26 08:34:30;;;;;;;3.45;2.85;;;;;;;8.39;57.08;95922.28;5103555;27;20079;-54
2023/02/26 08:36:58;;;;;;;5.22;2.42;;;;;;;8.81;57.84;95920.03;5099267;27;20090;-52
2023/02/26 08:39:26;;;;;;;7.45;4.72;;;;;;;8.52;57.26;95917.50;5102500;28;20090;-53
2023/02/26 08:41:56;;;;;;;3.33;2.42;;;;;;;8.09;56.56;95921.53;5101894;27;20074;-53
2023/02/26 08:44:24;;;;;;;5.53;3.55;;;;;;;8.39;56.99;95927.53;5098997;28;20526;-55
2023/02/26 08:46:53;;;;;;;3.28;2.72;;;;;;;8.68;57.43;95936.13;5101609;28;20102;-52
2023/02/26 08:49:21;;;;;;;1.92;1.35;;;;;;;7.97;58.08;95936.59;5105893;27;20079;-52
2023/02/26 08:51:49;;;;;;;4.13;2.00;;;;;;;8.45;57.17;95938.28;5109719;27;20078;-52
2023/02/26 08:54:17;;;;;;;2.08;1.45;;;;;;;8.05;59.19;95943.75;5105046;27;20074;-48
2023/02/26 08:56:46;;;;;;;4.45;2.13;;;;;;;6.80;65.29;95955.88;5102651;27;20558;-49
2023/02/26 08:59:16;;;;;;;11.20;5.07;;;;;;;8.14;61.09;95939.47;5096524;27;20086;-49
2023/02/26 09:01:44;;;;;;;4.47;2.53;;;;;;;8.12;59.95;95944.88;5101088;28;20071;-51
2023/02/26 09:04:12;;;;;;;3.65;1.83;;;;;;;8.33;58.97;95942.06;5089695;27;20086;-51
2023/02/26 09:06:40;;;;;;;2.10;1.45;;;;;;;7.91;60.46;95968.66;5097807;28;20087;-53
2023/02/26 09:09:09;;;;;;;3.58;1.92;;;;;;;7.83;60.36;95966.75;5096109;28;20495;-51
2023/02/26 09:11:38;;;;;;;1.85;1.35;;;;;;;7.19;62.90;95975.16;5101922;28;20558;-51
2023/02/26 09:14:06;;;;;;;1.42;1.25;;;;;;;6.60;67.03;95978.56;5096138;28;20162;-52
2023/02/26 09:16:36;;;;;;;3.38;1.83;;;;;;;6.53;67.76;95986.13;5090784;28;20539;-50
2023/02/26 09:19:05;;;;;;;4.30;1.60;;;;;;;7.57;64.85;95978.75;5093477;28;20079;-47
2023/02/26 09:21:35;;;;;;;1.92;1.50;;;;;;;7.31;66.25;95984.53;5094002;28;20127;-48
2023/02/26 09:24:03;;;;;;;2.08;1.40;;;;;;;7.76;63.77;95986.63;5095873;28;20079;-50
2023/02/26 09:26:31;;;;;;;6.68;2.67;;;;;;;7.94;63.11;95991.19;5096218;28;20531;-49
2023/02/26 09:29:00;;;;;;;2.47;1.40;;;;;;;7.84;61.14;95999.06;5103625;27;20072;-49
2023/02/26 09:31:28;;;;;;;1.65;1.08;;;;;;;7.08;64.88;96009.34;5093374;28;20095;-52
2023/02/26 09:33:58;;;;;;;1.13;0.95;;;;;;;7.20;65.55;96010.91;5099609;28;20086;-49
2023/02/26 09:36:26;;;;;;;2.13;1.37;;;;;;;6.94;65.85;96015.78;5094189;28;20090;-48
2023/02/26 09:38:55;;;;;;;5.57;2.35;;;;;;;7.44;67.75;96015.78;5111625;28;20082;-56
2023/02/26 09:41:26;;;;;;;2.47;1.65;;;;;;;7.14;68.97;96024.53;5099668;28;20084;-49
2023/02/26 09:44:09;;;;;;;2.47;1.95;;;;;;;6.81;68.94;96033.53;5098150;28;20068;-45
2023/02/26 09:46:46;;;;;;;3.92;1.85;;;;;;;7.08;70.10;96028.50;5103095;28;20078;-53
2023/02/26 09:49:21;;;;;;;3.15;2.28;;;;;;;7.99;65.44;96015.25;5094363;28;20087;-53
2023/02/26 09:51:53;;;;;;;2.63;1.63;;;;;;;8.25;61.01;96025.97;5099825;27;20084;-52
2023/02/26 09:54:24;;;;;;;2.25;1.52;;;;;;;8.93;57.86;96018.75;5104461;27;20067;-54
2023/02/26 09:56:53;;;;;;;3.63;1.60;;;;;;;8.45;57.61;96021.53;5097093;27;20071;-52
2023/02/26 09:59:22;;;;;;;2.22;1.42;;;;;;;9.55;55.79;96024.22;5099120;27;20080;-56
2023/02/26 10:01:56;;;;;;;2.00;1.40;;;;;;;9.38;54.07;96030.28;5098838;27;20079;-49
2023/02/26 10:04:49;;;;;;;2.50;1.90;;;;;;;8.53;54.90;96026.91;5092602;27;20102;-51
2023/02/26 10:07:26;;;;;;;3.10;2.15;;;;;;;9.12;56.27;96025.72;5107625;27;20093;-53
2023/02/26 10:10:04;;;;;;;1.80;1.15;;;;;;;10.18;53.53;96013.56;5104946;27;20090;-49
2023/02/26 10:12:35;;;;;;;1.38;1.10;;;;;;;9.29;53.93;96018.84;5101609;28;20079;-52
2023/02/26 10:15:08;;;;;;;1.40;1.17;;;;;;;9.50;54.76;96021.22;5093554;27;20510;-52
2023/02/26 10:17:42;;;;;;;2.70;1.85;;;;;;;8.91;54.86;96030.38;5096529;27;20591;-55
2023/02/26 10:20:23;;;;;;;2.92;1.90;;;;;;;8.93;54.02;96033.69;5097379;27;20083;-53
2023/02/26 10:22:58;;;;;;;2.63;1.55;;;;;;;8.84;56.44;96030.13;5093374;27;20078;-54
2023/02/26 10:25:31;;;;;;;3.20;1.92;;;;;;;9.68;55.88;96027.31;5098218;27;20075;-50
2023/02/26 10:28:03;;;;;;;2.25;1.42;;;;;;;9.46;57.32;96030.34;5102614;27;20158;-52
2023/02/26 10:30:36;;;;;;;1.63;1.35;;;;;;;8.43;54.49;96036.59;5094875;27;20086;-56
2023/02/26 10:33:12;;;;;;;1.63;0.90;;;;;;;9.78;55.72;96032.50;5100684;27;20071;-51
2023/02/26 10:35:47;;;;;;;2.30;1.33;;;;;;;9.36;54.53;96035.72;5100317;27;20079;-53
2023/02/26 10:38:19;;;;;;;2.80;2.13;;;;;;;9.30;56.99;96031.03;5098946;27;20105;-55
2023/02/26 10:40:50;;;;;;;2.70;1.65;;;;;;;8.77;58.37;96034.28;5105785;27;20099;-49
2023/02/26 10:43:22;;;;;;;1.42;1.20;;;;;;;9.82;55.74;96028.59;5097444;27;20085;-47
2023/02/26 10:46:01;;;;;;;2.22;1.15;;;;;;;9.08;61.18;96039.28;5100426;27;20079;-51
2023/02/26 10:48:45;;;;;;;2.60;1.52;;;;;;;9.71;59.02;96026.19;5101760;27;20511;-56
2023/02/26 10:51:16;;;;;;;2.92;2.05;;;;;;;7.50;67.04;96046.72;5103801;27;20099;-50
2023/02/26 10:53:48;;;;;;;1.92;1.10;;;;;;;7.42;67.08;96037.84;5098662;27;20067;-48
2023/02/26 10:56:18;;;;;;;2.40;1.65;;;;;;;7.55;68.25;96043.69;5094697;27;20582;-51
2023/02/26 10:58:46;;;;;;;9.30;1.70;;;;;;;6.88;76.36;96035.50;5102460;27;20083;-52
2023/02/26 11:01:17;;;;;;;1.77;1.50;;;;;;;7.12;83.36;96039.56;5097927;27;20082;-53
2023/02/26 11:03:48;;;;;;;2.25;1.70;;;;;;;7.18;77.67;96030.34;5104475;28;20110;-52
2023/02/26 11:06:22;;;;;;;1.73;1.45;;;;;;;7.07;72.38;96032.09;5096508;27;20148;-50
2023/02/26 11:08:53;;;;;;;1.85;1.30;;;;;;;6.78;72.79;96033.78;5097825;28;20102;-52
2023/02/26 11:11:43;;;;;;;0.85;0.80;;;;;;;6.87;72.15;96018.09;5098336;27;20103;-52
2023/02/26 11:14:13;;;;;;;1.83;1.45;;;;;;;7.55;73.73;96014.81;5100530;27;20071;-53
2023/02/26 11:16:50;;;;;;;1.90;1.65;;;;;;;7.71;74.75;96012.47;5107747;27;20097;-51
2023/02/26 11:19:20;;;;;;;1.02;0.75;;;;;;;8.33;73.20;96007.72;5104893;27;20087;-53
2023/02/26 11:21:50;;;;;;;2.85;1.50;;;;;;;7.92;77.71;96011.50;5099785;27;20086;-53
2023/02/26 11:24:21;;;;;;;;;;;;;;;7.55;74.90;96006.94;5103890;27;20106;-51
2023/02/26 11:26:51;;;;;;;3.38;1.63;;;;;;;7.31;73.35;96012.56;5104051;27;19975;-53
2023/02/26 11:29:21;;;;;;;3.30;1.67;;;;;;;6.54;75.46;96013.16;5106652;27;20105;-50
2023/02/26 11:31:51;;;;;;;3.40;1.80;;;;;;;6.90;72.73;96012.59;5098257;27;20075;-51
2023/02/26 11:34:23;;;;;;;1.83;1.40;;;;;;;7.59;69.93;96006.53;5095140;28;20078;-47
2023/02/26 11:36:56;;;;;;;2.63;1.70;;;;;;;7.72;64.20;95994.94;5103921;27;21436;-52
2023/02/26 11:39:26;;;;;;;2.22;1.20;;;;;;;7.75;65.57;96013.88;5101243;27;20083;-50
2023/02/26 11:41:58;;;;;;;1.77;1.23;;;;;;;7.66;63.11;96019.94;5100058;27;20477;-50
2023/02/26 11:44:34;;;;;;;2.20;1.70;;;;;;;6.64;66.33;96030.59;5097873;27;20579;-51
2023/02/26 11:47:06;;;;;;;2.38;1.35;;;;;;;6.75;69.00;96034.06;5096517;27;20076;-49
2023/02/26 11:49:34;;;;;;;2.38;1.25;;;;;;;7.25;66.73;96031.47;5100448;27;20565;-52
2023/02/26 11:52:15;;;;;;;2.90;1.60;;;;;;;6.62;64.87;96042.97;5104361;27;20456;-48
2023/02/26 11:54:45;;;;;;;1.80;1.50;;;;;;;7.12;61.81;96040.41;5094189;27;20073;-49
2023/02/26 11:57:18;;;;;;;2.78;1.42;;;;;;;7.00;61.88;96044.09;5101153;27;20531;-50